Time;durP1;ratioP1;P1;durP2;ratioP2;P2;SDS_P1;SDS_P2;PMS_P1;PMS_P2;Temp;Humidity;BMP_temperature;BMP_pressure;BME280_temperature;BME280_humidity;BME280_pressure;Samples;Min_cycle;Max_cycle;Signal;HPM_P1;HPM_P2
2021/07/20 00:01:00;;;;;;;10.30;7.32;;;;;;;25.81;61.01;94476.75;5068303;28;20029;-70
2021/07/20 00:03:25;;;;;;;7.75;6.60;;;;;;;25.77;61.30;94470.16;5068429;28;20020;-71
2021/07/20 00:05:51;;;;;;;7.55;6.57;;;;;;;25.79;61.13;94471.81;5067887;28;20498;-71
2021/07/20 00:08:16;;;;;;;8.32;7.07;;;;;;;25.63;61.26;94457.81;5068356;28;20043;-71
2021/07/20 00:10:50;;;;;;;9.65;6.55;;;;;;;25.50;61.29;94434.06;5067606;28;20032;-71
2021/07/20 00:13:16;;;;;;;8.15;6.72;;;;;;;25.48;61.17;94438.59;5057954;28;20064;-71
2021/07/20 00:15:41;;;;;;;8.98;6.95;;;;;;;25.80;61.12;94478.75;5075180;28;20032;-71
2021/07/20 00:18:17;;;;;;;7.78;6.72;;;;;;;25.80;61.15;94473.28;5068315;28;20024;-71
2021/07/20 00:20:43;;;;;;;8.95;6.78;;;;;;;25.79;61.15;94471.81;5068121;28;20027;-71
2021/07/20 00:23:09;;;;;;;7.85;6.72;;;;;;;25.68;61.23;94459.69;5068151;28;20406;-71
2021/07/20 00:25:34;;;;;;;9.15;7.13;;;;;;;25.78;61.23;94474.38;5068022;28;20105;-71
2021/07/20 00:28:00;;;;;;;7.57;6.38;;;;;;;25.74;61.08;94474.72;5068055;28;20667;-71
2021/07/20 00:30:26;;;;;;;11.75;7.57;;;;;;;25.74;61.26;94473.97;5066796;28;20032;-71
2021/07/20 00:32:52;;;;;;;8.20;6.60;;;;;;;25.35;60.92;94422.25;5066609;28;20086;-71
2021/07/20 00:35:17;;;;;;;8.98;6.85;;;;;;;25.46;60.56;94432.94;5066656;28;20472;-71
2021/07/20 00:37:43;;;;;;;10.35;6.60;;;;;;;25.76;61.19;94465.97;5077355;28;20460;-71
2021/07/20 00:40:11;;;;;;;7.97;6.90;;;;;;;25.47;60.82;94429.66;5067887;28;20113;-72
2021/07/20 00:42:36;;;;;;;8.75;7.13;;;;;;;25.46;60.92;94424.72;5066680;28;20021;-71
2021/07/20 00:45:03;;;;;;;7.38;6.60;;;;;;;25.73;60.86;94467.03;5066445;28;20023;-71
2021/07/20 00:47:29;;;;;;;9.98;7.13;;;;;;;25.29;60.58;94391.63;5067995;28;20391;-71
2021/07/20 00:49:54;;;;;;;8.27;7.05;;;;;;;25.72;60.66;94466.28;5066397;28;20027;-71
2021/07/20 00:52:20;;;;;;;8.45;6.65;;;;;;;25.73;60.67;94451.34;5067633;28;20028;-71
2021/07/20 00:54:45;;;;;;;8.93;6.53;;;;;;;25.72;60.76;94457.38;5067496;28;20081;-72
2021/07/20 00:57:11;;;;;;;9.63;7.20;;;;;;;25.71;60.46;94458.63;5066411;28;20032;-70
2021/07/20 00:59:37;;;;;;;9.65;7.00;;;;;;;25.73;60.36;94456.09;5066488;28;20306;-72
2021/07/20 01:02:03;;;;;;;9.23;6.95;;;;;;;25.69;60.43;94444.75;5066690;28;20661;-71
2021/07/20 01:04:29;;;;;;;7.93;6.53;;;;;;;25.54;60.56;94422.75;5068017;28;20088;-72
2021/07/20 01:06:54;;;;;;;9.85;7.05;;;;;;;25.57;60.55;94427.16;5069327;28;20232;-71
2021/07/20 01:09:20;;;;;;;8.63;7.10;;;;;;;25.59;60.55;94435.53;5067049;28;20037;-71
2021/07/20 01:11:45;;;;;;;7.40;6.60;;;;;;;25.66;60.40;94451.31;5065556;28;20036;-71
2021/07/20 01:14:11;;;;;;;8.88;7.05;;;;;;;25.68;60.05;94449.50;5063889;28;20098;-71
2021/07/20 01:16:38;;;;;;;9.57;6.75;;;;;;;25.64;60.38;94453.84;5065118;28;20036;-72
2021/07/20 01:19:05;;;;;;;8.13;7.25;;;;;;;25.67;60.01;94452.78;5067522;28;20089;-72
2021/07/20 01:21:34;;;;;;;8.75;7.35;;;;;;;25.65;59.97;94449.84;5065758;28;20392;-71
2021/07/20 01:24:02;;;;;;;10.18;7.20;;;;;;;25.65;59.97;94455.31;5066728;28;20023;-71
2021/07/20 01:26:27;;;;;;;8.93;7.10;;;;;;;25.21;60.08;94390.81;5067148;28;20123;-70
2021/07/20 01:28:53;;;;;;;8.50;6.65;;;;;;;25.60;60.38;94448.69;5065781;28;20028;-71
2021/07/20 01:31:21;;;;;;;8.98;7.15;;;;;;;25.60;60.07;94447.97;5065560;28;20037;-70
2021/07/20 01:33:51;;;;;;;9.40;7.25;;;;;;;25.58;60.10;94455.97;5048954;28;20028;-71
2021/07/20 01:36:17;;;;;;;10.82;7.30;;;;;;;25.59;60.26;94454.69;5066884;28;20040;-71
2021/07/20 01:38:43;;;;;;;8.63;6.93;;;;;;;25.30;59.90;94417.69;5066525;28;20032;-71
2021/07/20 01:41:11;;;;;;;8.18;7.20;;;;;;;25.59;60.10;94460.16;5065249;28;20052;-72
2021/07/20 01:43:37;;;;;;;9.50;7.20;;;;;;;25.54;60.08;94455.56;5065353;28;20035;-70
2021/07/20 01:46:03;;;;;;;9.45;7.65;;;;;;;25.53;59.99;94462.31;5048768;28;20028;-71
2021/07/20 01:48:33;;;;;;;11.35;6.97;;;;;;;25.23;60.06;94410.19;5065249;28;20505;-70
2021/07/20 01:50:58;;;;;;;11.55;7.72;;;;;;;25.23;59.63;94415.63;5048951;28;20482;-71
2021/07/20 01:53:23;;;;;;;11.10;7.25;;;;;;;25.56;59.90;94458.50;5064488;28;20039;-71
2021/07/20 01:55:49;;;;;;;8.93;7.13;;;;;;;25.53;60.12;94471.25;5065342;28;20036;-71
2021/07/20 01:58:14;;;;;;;9.57;7.30;;;;;;;25.53;60.34;94473.25;5065175;28;20028;-72
2021/07/20 02:00:40;;;;;;;8.48;7.63;;;;;;;25.50;60.16;94471.56;5065128;28;20025;-71
2021/07/20 02:08:44;;;;;;;9.55;7.13;;;;;;;25.43;60.17;94478.47;5052360;28;20107;-71
2021/07/20 02:11:14;;;;;;;9.10;7.45;;;;;;;25.34;59.88;94459.09;5065180;28;20502;-70
2021/07/20 02:13:43;;;;;;;8.90;7.28;;;;;;;25.42;60.08;94471.53;5066762;28;20495;-71
2021/07/20 02:16:10;;;;;;;10.40;7.00;;;;;;;25.43;60.16;94477.75;5068996;28;20048;-71
2021/07/20 02:18:35;;;;;;;10.55;8.00;;;;;;;25.40;59.87;94467.88;5068681;28;20028;-71
2021/07/20 02:21:05;;;;;;;12.00;7.43;;;;;;;25.13;59.81;94433.78;5072870;28;20081;-71
2021/07/20 02:23:31;;;;;;;11.00;8.32;;;;;;;25.42;59.66;94476.25;5074063;28;20026;-71
2021/07/20 02:25:56;;;;;;;8.82;7.22;;;;;;;25.44;59.98;94471.00;5048458;28;20032;-71
2021/07/20 02:28:22;;;;;;;9.43;7.28;;;;;;;25.45;59.77;94475.91;5047739;28;20585;-71
2021/07/20 02:30:48;;;;;;;11.05;7.18;;;;;;;25.11;59.57;94425.38;5065124;28;20116;-71
2021/07/20 02:33:14;;;;;;;9.68;8.10;;;;;;;25.21;59.53;94442.75;5047977;28;20135;-71
2021/07/20 02:35:39;;;;;;;11.48;7.68;;;;;;;25.44;59.78;94473.72;5065976;28;20078;-71
2021/07/20 02:38:05;;;;;;;10.57;8.10;;;;;;;25.15;59.84;94435.97;5064187;28;20060;-72
2021/07/20 02:40:30;;;;;;;11.35;8.02;;;;;;;25.41;59.78;94475.53;5063828;28;20051;-71
2021/07/20 02:42:57;;;;;;;11.68;7.68;;;;;;;25.29;59.85;94462.69;5065816;28;20082;-71
2021/07/20 02:45:23;;;;;;;9.68;7.75;;;;;;;25.13;59.61;94433.78;5064318;28;20029;-71
2021/07/20 02:47:49;;;;;;;9.00;7.55;;;;;;;25.40;59.37;94478.81;5064333;28;20032;-72
2021/07/20 02:50:15;;;;;;;9.93;7.30;;;;;;;25.36;59.75;94472.94;5065797;28;20032;-71
2021/07/20 02:52:45;;;;;;;9.38;7.80;;;;;;;25.39;59.68;94471.88;5047648;28;20082;-71
2021/07/20 02:55:12;;;;;;;9.25;7.70;;;;;;;25.05;59.38;94432.22;5064425;28;20020;-71
2021/07/20 02:57:37;;;;;;;10.27;7.68;;;;;;;25.32;59.15;94467.09;5048212;28;20452;-71
2021/07/20 03:00:05;;;;;;;10.15;7.97;;;;;;;25.39;59.12;94488.28;5064394;28;20031;-71
2021/07/20 03:02:34;;;;;;;9.73;8.07;;;;;;;25.36;59.20;94472.94;5065496;28;20020;-71
2021/07/20 03:04:59;;;;;;;9.57;7.28;;;;;;;25.38;59.13;94486.78;5047412;28;20024;-71
2021/07/20 03:07:25;;;;;;;8.63;7.72;;;;;;;25.36;58.90;94489.34;5065494;28;20031;-71
2021/07/20 03:09:51;;;;;;;11.40;8.35;;;;;;;25.30;59.34;94480.53;5064602;28;20048;-72
2021/07/20 03:12:16;;;;;;;10.38;8.25;;;;;;;25.30;59.27;94485.28;5062615;28;20089;-71
2021/07/20 03:14:42;;;;;;;10.45;8.38;;;;;;;25.34;59.25;94491.88;5063382;28;20097;-72
2021/07/20 03:17:08;;;;;;;11.23;9.07;;;;;;;25.31;59.34;94487.47;5064189;28;20032;-71
2021/07/20 03:19:33;;;;;;;11.35;8.57;;;;;;;25.31;59.34;94492.94;5064316;28;20023;-71
2021/07/20 03:22:02;;;;;;;10.68;8.63;;;;;;;25.30;59.02;94496.94;5063955;28;20059;-71
2021/07/20 03:24:27;;;;;;;12.02;9.15;;;;;;;25.31;59.38;94492.94;5063838;28;20032;-71
2021/07/20 03:26:53;;;;;;;10.73;8.65;;;;;;;25.30;59.38;94490.75;5047459;28;20450;-71
2021/07/20 03:29:18;;;;;;;11.10;8.65;;;;;;;25.03;59.28;94451.88;5047262;28;20029;-71
2021/07/20 03:31:44;;;;;;;12.27;8.50;;;;;;;25.08;59.14;94464.69;5063889;28;20039;-70
2021/07/20 03:34:09;;;;;;;12.27;8.77;;;;;;;25.29;59.13;94490.03;5047380;28;20422;-71
2021/07/20 03:36:35;;;;;;;11.18;9.15;;;;;;;25.28;59.10;94499.50;5064500;28;20043;-71
2021/07/20 03:39:00;;;;;;;10.73;8.85;;;;;;;25.30;58.69;94501.69;5064155;28;20795;-71
2021/07/20 03:41:27;;;;;;;12.70;9.55;;;;;;;25.34;59.12;94508.28;5070348;28;20130;-71
2021/07/20 03:43:52;;;;;;;12.38;9.52;;;;;;;25.31;59.14;94515.53;5071495;28;20418;-72
2021/07/20 03:46:18;;;;;;;13.10;9.30;;;;;;;25.00;58.98;94458.41;5071401;28;20049;-71
2021/07/20 03:48:43;;;;;;;12.85;9.88;;;;;;;25.36;59.14;94516.69;5083628;28;20030;-72
2021/07/20 03:51:10;;;;;;;12.48;10.35;;;;;;;25.13;59.07;94477.50;5084537;28;20020;-71
2021/07/20 03:53:36;;;;;;;13.65;9.63;;;;;;;25.39;59.01;94515.59;5078757;28;20036;-71
2021/07/20 03:56:02;;;;;;;14.95;10.80;;;;;;;25.40;58.90;94528.03;5069548;28;20041;-72
2021/07/20 03:58:28;;;;;;;13.88;10.70;;;;;;;25.46;58.88;94534.09;5075456;28;20585;-71
2021/07/20 04:00:59;;;;;;;13.40;11.02;;;;;;;25.42;58.63;94520.72;5076709;28;20040;-71
2021/07/20 04:03:24;;;;;;;14.70;10.27;;;;;;;25.56;58.72;94540.53;5072758;28;20033;-72
2021/07/20 04:05:53;;;;;;;13.63;10.98;;;;;;;25.53;58.49;94520.47;5083295;28;20039;-73
2021/07/20 04:08:19;;;;;;;12.93;10.07;;;;;;;25.65;58.21;94537.34;5065928;28;20514;-71
2021/07/20 04:10:45;;;;;;;15.45;11.15;;;;;;;25.73;57.82;94535.44;5086314;28;20111;-72
2021/07/20 04:13:11;;;;;;;16.17;11.15;;;;;;;25.75;58.01;94539.06;5077047;28;20028;-72
2021/07/20 04:15:39;;;;;;;13.65;10.80;;;;;;;25.80;57.75;94541.69;5068931;28;20047;-72
2021/07/20 04:18:05;;;;;;;17.38;11.00;;;;;;;25.86;57.50;94542.25;5075810;28;20043;-71
2021/07/20 04:20:30;;;;;;;16.27;11.27;;;;;;;25.97;57.13;94541.97;5074283;28;20573;-72
2021/07/20 04:22:56;;;;;;;14.68;11.80;;;;;;;26.04;56.94;94541.28;5069670;28;20586;-70
2021/07/20 04:25:21;;;;;;;15.50;11.68;;;;;;;25.89;56.20;94502.88;5077137;28;20078;-71
2021/07/20 04:27:47;;;;;;;15.10;11.60;;;;;;;26.09;56.66;94526.72;5076106;28;20093;-72
2021/07/20 04:30:12;;;;;;;17.65;12.35;;;;;;;26.28;56.35;94538.19;5083543;28;20027;-73
2021/07/20 04:32:47;;;;;;;16.92;12.45;;;;;;;25.73;55.61;94445.88;5070269;28;20131;-75
2021/07/20 04:35:14;;;;;;;16.67;12.93;;;;;;;26.38;55.30;94536.41;5082741;28;20035;-75
2021/07/20 04:37:40;;;;;;;16.52;12.57;;;;;;;25.80;55.51;94454.13;5070593;28;20028;-76
2021/07/20 04:40:06;;;;;;;18.17;13.23;;;;;;;26.47;55.07;94544.09;5065790;28;20523;-76
2021/07/20 04:42:32;;;;;;;16.30;12.25;;;;;;;26.61;54.62;94545.47;5083871;28;20032;-78
2021/07/20 04:44:57;;;;;;;17.85;13.32;;;;;;;26.53;54.47;94517.28;5082990;28;20093;-76
2021/07/20 04:47:22;;;;;;;16.90;12.10;;;;;;;26.76;53.51;94525.06;5068010;28;20027;-74
2021/07/20 04:49:48;;;;;;;17.88;12.80;;;;;;;26.85;53.91;94535.50;5067678;28;20023;-75
2021/07/20 04:52:13;;;;;;;16.35;12.52;;;;;;;26.72;53.50;94509.53;5072403;28;20039;-74
2021/07/20 04:54:39;;;;;;;16.83;12.05;;;;;;;26.94;53.46;94537.75;5081869;28;20023;-75
2021/07/20 04:57:05;;;;;;;17.95;12.82;;;;;;;26.86;53.17;94509.56;5080184;28;20031;-75
2021/07/20 04:59:31;;;;;;;14.82;11.75;;;;;;;27.18;53.11;94540.00;5091769;28;20468;-75
2021/07/20 05:01:57;;;;;;;16.55;11.77;;;;;;;27.24;52.63;94535.06;5086052;28;20063;-77
2021/07/20 05:04:22;;;;;;;16.48;12.13;;;;;;;27.13;52.63;94527.19;5074733;28;20074;-74
2021/07/20 05:06:48;;;;;;;16.08;12.10;;;;;;;27.28;52.16;94543.69;5084251;28;20184;-76
2021/07/20 05:09:13;;;;;;;15.05;12.25;;;;;;;27.21;51.76;94522.47;5081170;28;20024;-76
2021/07/20 05:11:39;;;;;;;15.45;12.50;;;;;;;27.40;51.99;94533.81;5096390;28;20016;-71
2021/07/20 05:14:05;;;;;;;17.63;13.05;;;;;;;27.49;52.05;94536.03;5088610;28;20051;-72
2021/07/20 05:16:33;;;;;;;17.63;13.85;;;;;;;27.32;51.99;94522.09;5081355;28;20399;-73
2021/07/20 05:18:58;;;;;;;15.45;12.00;;;;;;;27.32;51.76;94527.59;5084066;28;20020;-72
2021/07/20 05:21:23;;;;;;;17.30;12.57;;;;;;;27.49;50.90;94541.50;5061537;28;20036;-74
2021/07/20 05:23:49;;;;;;;16.08;11.73;;;;;;;27.56;51.17;94540.81;5063465;28;20506;-74
2021/07/20 05:26:14;;;;;;;17.10;12.40;;;;;;;27.54;51.05;94548.84;5080086;28;20093;-74
2021/07/20 05:28:40;;;;;;;17.13;12.73;;;;;;;27.57;50.80;94536.78;5071399;28;20028;-75
2021/07/20 05:31:05;;;;;;;17.95;12.38;;;;;;;27.52;51.67;94545.91;5072874;28;20029;-73
2021/07/20 05:33:32;;;;;;;16.80;12.98;;;;;;;27.49;50.97;94541.50;5052871;28;20513;-72
2021/07/20 05:35:58;;;;;;;15.70;12.48;;;;;;;27.60;50.97;94557.63;5074968;28;20107;-72
2021/07/20 05:38:24;;;;;;;16.50;12.77;;;;;;;27.62;51.38;94549.59;5074003;28;20417;-73
2021/07/20 05:40:50;;;;;;;16.58;12.30;;;;;;;27.67;52.33;94557.66;5073929;28;20052;-76
2021/07/20 05:43:16;;;;;;;17.80;12.70;;;;;;;27.70;52.06;94555.78;5073116;28;20032;-77
2021/07/20 05:45:42;;;;;;;16.65;12.35;;;;;;;27.58;51.71;94538.22;5060196;28;20028;-76
2021/07/20 05:48:07;;;;;;;16.80;11.75;;;;;;;27.68;52.15;94552.88;5061393;28;20032;-76
2021/07/20 05:50:33;;;;;;;19.40;12.93;;;;;;;27.75;51.53;94564.56;5086140;28;20024;-76
2021/07/20 05:53:00;;;;;;;17.50;13.45;;;;;;;27.84;51.53;94561.28;5079036;28;20032;-72
2021/07/20 05:55:25;;;;;;;19.75;12.95;;;;;;;27.94;50.87;94564.22;5056095;28;20037;-73
2021/07/20 05:57:51;;;;;;;18.38;14.45;;;;;;;27.89;50.88;94568.63;5063886;28;20032;-76
2021/07/20 06:00:25;;;;;;;18.75;14.23;;;;;;;27.66;50.58;94544.47;5061950;28;20395;-81
2021/07/20 06:02:51;;;;;;;19.13;14.07;;;;;;;27.90;50.05;94574.84;5070793;28;20573;-76
2021/07/20 06:05:16;;;;;;;19.30;13.93;;;;;;;27.94;50.85;94570.44;5077871;28;20090;-73
2021/07/20 06:07:42;;;;;;;17.90;13.20;;;;;;;27.65;50.70;94553.97;5056570;28;20074;-74
2021/07/20 06:10:09;;;;;;;18.35;13.60;;;;;;;27.80;51.01;94571.91;5077412;28;20028;-74
2021/07/20 06:12:34;;;;;;;19.85;14.75;;;;;;;27.78;51.10;94568.25;5084635;28;20024;-74
2021/07/20 06:15:00;;;;;;;19.35;14.32;;;;;;;27.73;50.49;94576.66;5069651;28;20515;-76
2021/07/20 06:17:26;;;;;;;21.63;14.60;;;;;;;27.43;51.35;94551.94;5074222;28;20085;-75
2021/07/20 06:19:52;;;;;;;20.00;14.13;;;;;;;27.54;51.37;94581.78;5080878;28;20486;-75
2021/07/20 06:22:18;;;;;;;20.65;13.82;;;;;;;27.46;52.27;94575.53;5080334;28;20031;-75
2021/07/20 06:24:44;;;;;;;18.85;13.10;;;;;;;27.46;51.88;94573.50;5090466;28;20431;-74
2021/07/20 06:27:14;;;;;;;17.15;12.85;;;;;;;27.16;52.31;94559.00;5084647;28;20039;-75
2021/07/20 06:29:39;;;;;;;17.23;12.80;;;;;;;27.10;52.47;94561.19;5066714;28;20043;-74
2021/07/20 06:32:05;;;;;;;15.75;11.85;;;;;;;27.11;52.82;94578.34;5065246;28;20024;-76
2021/07/20 06:34:30;;;;;;;16.20;12.68;;;;;;;27.15;53.02;94595.19;5072034;28;20020;-75
2021/07/20 06:36:56;;;;;;;16.98;12.02;;;;;;;27.06;53.81;94599.19;5056985;28;20037;-76
2021/07/20 06:39:21;;;;;;;20.15;12.32;;;;;;;26.98;53.91;94587.47;5076710;28;20020;-75
2021/07/20 06:41:47;;;;;;;16.30;11.75;;;;;;;27.02;53.99;94587.81;5066282;28;20064;-77
2021/07/20 06:44:12;;;;;;;14.90;11.38;;;;;;;26.98;53.83;94597.69;5061073;28;20025;-77
2021/07/20 06:46:38;;;;;;;15.30;11.18;;;;;;;26.92;54.15;94588.88;5076559;28;20024;-78
2021/07/20 06:49:03;;;;;;;15.40;10.25;;;;;;;26.85;54.54;94590.31;5073932;28;20395;-77
2021/07/20 06:51:30;;;;;;;15.10;10.23;;;;;;;26.65;54.28;94573.22;5086093;28;20081;-77
2021/07/20 06:53:56;;;;;;;15.48;10.70;;;;;;;26.77;54.63;94589.53;5077048;28;20029;-78
2021/07/20 06:56:31;;;;;;;14.75;10.77;;;;;;;26.83;54.37;94587.38;5071649;28;20084;-78
2021/07/20 06:58:57;;;;;;;15.52;10.02;;;;;;;26.79;54.58;94587.00;5063500;28;20395;-78
2021/07/20 07:01:22;;;;;;;14.10;10.43;;;;;;;26.82;54.86;94587.91;5071624;28;20020;-76
2021/07/20 07:03:52;;;;;;;13.05;9.63;;;;;;;26.87;54.40;94595.97;5074220;28;20024;-77
2021/07/20 07:06:17;;;;;;;14.63;9.80;;;;;;;26.86;54.65;94589.03;5083037;28;20036;-78
2021/07/20 07:08:43;;;;;;;15.80;10.02;;;;;;;26.81;54.97;94589.91;5074919;28;20579;-79
2021/07/20 07:11:08;;;;;;;14.95;9.80;;;;;;;26.57;54.85;94569.72;5059026;28;20105;-76
2021/07/20 07:13:34;;;;;;;14.15;10.40;;;;;;;26.71;55.70;94590.25;5077388;28;20644;-77
2021/07/20 07:16:00;;;;;;;13.43;9.98;;;;;;;26.71;54.81;94591.00;5079939;28;20033;-78
2021/07/20 07:18:25;;;;;;;12.27;9.23;;;;;;;26.71;55.03;94590.25;5079801;28;20054;-77
2021/07/20 07:20:51;;;;;;;13.50;9.52;;;;;;;26.71;54.55;94598.44;5078046;28;20546;-79
2021/07/20 07:23:20;;;;;;;12.55;9.07;;;;;;;26.71;54.59;94601.19;5056924;28;20084;-77
2021/07/20 07:25:50;;;;;;;16.95;10.75;;;;;;;26.62;55.10;94598.97;5072958;28;20104;-78
2021/07/20 07:28:16;;;;;;;13.00;9.38;;;;;;;26.63;54.86;94605.91;5076415;28;20097;-77
2021/07/20 07:30:42;;;;;;;16.60;9.65;;;;;;;26.68;54.67;94605.00;5079714;28;20024;-76
2021/07/20 07:33:08;;;;;;;11.32;8.77;;;;;;;26.64;54.25;94607.38;5076677;28;20077;-77
2021/07/20 07:35:34;;;;;;;11.52;8.52;;;;;;;26.43;54.48;94582.06;5083428;28;20118;-77
2021/07/20 07:38:00;;;;;;;14.18;9.15;;;;;;;26.70;54.45;94602.47;5083395;28;20028;-74
2021/07/20 07:40:26;;;;;;;13.65;9.23;;;;;;;26.65;54.91;94608.84;5083116;28;20060;-76
2021/07/20 07:42:52;;;;;;;12.57;8.50;;;;;;;26.46;55.00;94586.47;5069091;28;20161;-74
2021/07/20 07:45:17;;;;;;;11.98;8.77;;;;;;;26.68;54.80;94605.00;5078610;28;20119;-74
2021/07/20 07:47:43;;;;;;;11.80;8.35;;;;;;;26.52;54.27;94573.34;5069178;28;20400;-73
2021/07/20 07:50:09;;;;;;;17.20;9.18;;;;;;;26.56;54.53;94573.72;5075552;28;20053;-74
2021/07/20 07:52:35;;;;;;;13.50;8.55;;;;;;;26.69;54.55;94603.75;5082062;28;20597;-74
2021/07/20 07:55:01;;;;;;;12.32;9.27;;;;;;;26.74;54.85;94608.34;5077072;28;20032;-74
2021/07/20 07:57:26;;;;;;;14.32;8.82;;;;;;;26.75;54.27;94607.78;5072266;28;20016;-73
2021/07/20 07:59:54;;;;;;;13.02;8.45;;;;;;;26.73;54.70;94604.16;5072112;28;20028;-72
2021/07/20 08:02:22;;;;;;;10.50;7.47;;;;;;;26.81;54.71;94606.34;5073063;28;20028;-73
2021/07/20 08:04:48;;;;;;;12.25;8.23;;;;;;;26.60;54.34;94574.13;5078163;28;20028;-73
2021/07/20 08:07:14;;;;;;;10.27;7.07;;;;;;;26.82;54.41;94602.34;5088900;28;20019;-73
2021/07/20 08:09:39;;;;;;;10.93;7.30;;;;;;;26.83;54.54;94598.34;5078015;28;20660;-74
2021/07/20 08:12:05;;;;;;;10.85;7.45;;;;;;;26.82;54.29;94588.66;5077506;28;20510;-74
2021/07/20 08:14:30;;;;;;;12.15;7.70;;;;;;;26.91;53.78;94593.66;5075363;28;20046;-74
2021/07/20 08:17:00;;;;;;;13.23;7.85;;;;;;;26.90;54.18;94596.94;5075479;28;20056;-74
2021/07/20 08:19:27;;;;;;;13.30;7.95;;;;;;;26.93;53.59;94602.03;5074544;28;20029;-73
2021/07/20 08:21:58;;;;;;;11.60;7.90;;;;;;;26.98;53.85;94603.91;5075308;28;20098;-74
2021/07/20 08:24:24;;;;;;;10.68;6.85;;;;;;;26.94;53.57;94602.81;5068968;28;20521;-74
2021/07/20 08:26:51;;;;;;;13.50;7.22;;;;;;;26.95;53.63;94599.50;5078349;28;20052;-73
2021/07/20 08:29:19;;;;;;;12.95;7.50;;;;;;;26.95;53.60;94599.50;5070446;28;20024;-74
2021/07/20 08:31:59;;;;;;;10.20;7.25;;;;;;;26.88;53.29;94572.06;5073163;28;20678;-74
2021/07/20 08:34:25;;;;;;;10.63;7.40;;;;;;;26.71;53.72;94551.88;5053902;28;20449;-74
2021/07/20 08:36:50;;;;;;;10.20;7.13;;;;;;;27.02;53.88;94593.31;5054498;28;20043;-74
2021/07/20 08:39:16;;;;;;;11.60;7.85;;;;;;;27.04;53.62;94606.47;5054144;28;20506;-74
2021/07/20 08:42:03;;;;;;;8.93;7.28;;;;;;;27.05;53.76;94596.97;5056179;28;20049;-73
2021/07/20 08:44:43;;;;;;;9.32;7.22;;;;;;;27.06;53.23;94603.94;5067760;28;20032;-71
2021/07/20 08:47:29;;;;;;;12.23;7.68;;;;;;;27.09;52.74;94609.06;5066778;28;20055;-72
2021/07/20 08:50:13;;;;;;;11.13;7.57;;;;;;;27.10;53.23;94610.53;5071352;28;20032;-71
2021/07/20 08:52:42;;;;;;;9.40;7.30;;;;;;;27.08;53.31;94602.09;5071318;28;20147;-70
2021/07/20 08:55:13;;;;;;;10.30;7.63;;;;;;;27.09;52.89;94609.06;5092403;28;20024;-70
2021/07/20 08:57:44;;;;;;;9.95;7.30;;;;;;;27.12;53.47;94607.97;5069610;28;20066;-70
2021/07/20 09:00:17;;;;;;;11.23;7.35;;;;;;;27.15;52.74;94595.91;5078461;28;20106;-77
2021/07/20 09:02:59;;;;;;;12.75;7.70;;;;;;;27.11;52.88;94609.25;5078712;28;20040;-79
2021/07/20 09:05:38;;;;;;;10.13;7.20;;;;;;;27.01;52.76;94597.34;5073072;28;20529;-78
2021/07/20 09:08:22;;;;;;;12.35;7.40;;;;;;;27.09;52.56;94606.31;5063833;28;20028;-78
2021/07/20 09:10:52;;;;;;;10.75;7.07;;;;;;;27.13;52.17;94603.97;5086572;28;20057;-78
2021/07/20 09:13:20;;;;;;;11.65;8.00;;;;;;;27.11;52.46;94606.50;5084433;28;20123;-76
2021/07/20 09:15:53;;;;;;;10.30;7.65;;;;;;;27.16;52.75;94602.88;5084854;28;20024;-77
2021/07/20 09:18:38;;;;;;;10.63;7.55;;;;;;;27.03;52.44;94583.81;5081589;28;20076;-77
2021/07/20 09:21:04;;;;;;;11.30;6.70;;;;;;;27.05;51.92;94570.28;5073571;28;20625;-75
2021/07/20 09:23:48;;;;;;;9.80;6.55;;;;;;;27.25;51.90;94594.13;5055760;28;20025;-75
2021/07/20 09:26:22;;;;;;;8.57;6.15;;;;;;;27.38;51.47;94591.97;5068076;28;20024;-75
2021/07/20 09:28:57;;;;;;;8.77;6.13;;;;;;;27.42;51.91;94586.84;5077542;28;20091;-75
2021/07/20 09:31:26;;;;;;;8.52;6.70;;;;;;;27.60;51.76;94596.03;5069625;28;20025;-75
2021/07/20 09:33:58;;;;;;;9.40;6.50;;;;;;;27.72;51.00;94591.66;5085040;28;20024;-74
2021/07/20 09:36:27;;;;;;;10.60;6.68;;;;;;;27.77;51.11;94586.75;5083408;28;20042;-74
2021/07/20 09:38:56;;;;;;;9.38;6.97;;;;;;;27.78;51.14;94568.97;5070721;28;20081;-76
2021/07/20 09:41:21;;;;;;;10.48;7.20;;;;;;;28.02;50.69;94587.63;5068517;28;20060;-77
2021/07/20 09:44:01;;;;;;;9.52;6.65;;;;;;;28.09;50.47;94578.69;5074166;28;20410;-74
2021/07/20 09:46:33;;;;;;;9.48;7.13;;;;;;;28.17;49.27;94582.16;5074379;28;20024;-72
2021/07/20 09:49:00;;;;;;;9.07;7.07;;;;;;;28.24;49.00;94581.44;5067238;28;20035;-72
2021/07/20 09:52:02;;;;;;;9.25;6.95;;;;;;;28.34;48.88;94579.56;5078138;28;20504;-74
2021/07/20 09:55:02;;;;;;;11.82;6.85;;;;;;;28.25;49.09;94549.91;5080763;28;20034;-74
2021/07/20 09:57:49;;;;;;;10.90;7.32;;;;;;;28.60;48.77;94581.91;5073143;28;20035;-74
2021/07/20 10:00:18;;;;;;;12.15;7.50;;;;;;;28.58;48.72;94562.47;5078148;28;20085;-72
2021/07/20 10:02:46;;;;;;;11.23;7.05;;;;;;;28.74;48.85;94568.16;5050591;28;20048;-74
2021/07/20 10:05:36;;;;;;;10.30;6.95;;;;;;;28.81;48.42;94567.38;5073700;28;20443;-71
2021/07/20 10:08:05;;;;;;;10.32;7.10;;;;;;;28.88;47.54;94577.59;5067666;28;20032;-73
2021/07/20 10:10:37;;;;;;;9.87;7.50;;;;;;;28.95;47.65;94565.84;5064713;28;20027;-71
2021/07/20 10:13:24;;;;;;;8.68;6.63;;;;;;;28.98;47.23;94564.72;5070856;28;20431;-72
2021/07/20 10:16:11;;;;;;;12.63;7.72;;;;;;;29.08;46.98;94568.34;5072740;28;20121;-72
2021/07/20 10:18:50;;;;;;;11.32;7.07;;;;;;;29.18;46.33;94575.44;5069557;28;20033;-72
2021/07/20 10:21:18;;;;;;;8.15;6.75;;;;;;;29.25;45.98;94576.72;5085154;28;20020;-72
2021/07/20 10:24:00;;;;;;;8.98;7.18;;;;;;;29.31;46.47;94568.97;5069876;28;20025;-72
2021/07/20 10:26:37;;;;;;;10.68;6.38;;;;;;;29.25;46.42;94565.72;5065291;28;20123;-71
2021/07/20 10:29:11;;;;;;;8.95;6.45;;;;;;;29.41;46.02;94583.59;5079787;28;20093;-73
2021/07/20 10:31:44;;;;;;;8.93;6.65;;;;;;;29.35;45.89;94558.31;5079833;28;20028;-73
2021/07/20 10:34:12;;;;;;;9.45;6.90;;;;;;;29.42;46.22;94563.06;5067433;28;20089;-74
2021/07/20 10:37:05;;;;;;;10.02;6.97;;;;;;;29.40;46.46;94560.13;5064321;28;20092;-74
2021/07/20 10:39:39;;;;;;;11.00;6.55;;;;;;;29.42;46.29;94563.06;5073904;28;20513;-73
2021/07/20 10:42:35;;;;;;;10.23;7.13;;;;;;;29.43;46.07;94556.25;5081864;28;20557;-73
2021/07/20 10:45:03;;;;;;;9.43;6.68;;;;;;;29.39;45.37;94553.16;5071265;28;20032;-73
2021/07/20 10:47:43;;;;;;;10.95;6.90;;;;;;;29.35;45.67;94563.81;5084070;28;20036;-73
2021/07/20 10:50:47;;;;;;;8.65;6.40;;;;;;;29.25;45.99;94551.97;5085478;28;20525;-73
2021/07/20 10:53:48;;;;;;;11.13;6.97;;;;;;;29.24;45.57;94553.25;5077574;28;20028;-73
2021/07/20 10:56:52;;;;;;;7.95;6.55;;;;;;;29.20;45.65;94552.88;5046644;28;20037;-73
2021/07/20 10:59:55;;;;;;;8.90;7.05;;;;;;;29.15;45.87;94551.09;5083355;28;20036;-73
2021/07/20 11:02:23;;;;;;;11.57;6.60;;;;;;;29.11;45.79;94550.72;5069716;28;20054;-73
2021/07/20 11:05:04;;;;;;;10.32;6.97;;;;;;;29.09;46.50;94541.56;5078115;28;20104;-73
2021/07/20 11:07:42;;;;;;;9.15;6.90;;;;;;;29.05;46.53;94541.97;5077235;28;20426;-73
2021/07/20 11:10:32;;;;;;;9.85;7.00;;;;;;;29.01;46.92;94544.34;5070221;28;20490;-73
2021/07/20 11:13:00;;;;;;;12.52;7.85;;;;;;;28.98;46.37;94536.50;5076501;28;20078;-73
2021/07/20 11:15:26;;;;;;;9.65;6.45;;;;;;;28.98;46.90;94537.22;5074128;28;20460;-73
2021/07/20 11:17:51;;;;;;;12.55;7.40;;;;;;;28.81;46.85;94512.38;5084841;28;20081;-73
2021/07/20 11:20:19;;;;;;;10.82;7.38;;;;;;;28.95;47.07;94541.13;5066316;28;20036;-73
2021/07/20 11:22:45;;;;;;;11.98;7.35;;;;;;;28.92;46.29;94539.47;5075912;28;20062;-73
2021/07/20 11:25:10;;;;;;;13.52;7.28;;;;;;;28.88;46.90;94533.63;5074587;28;20056;-73
2021/07/20 11:27:39;;;;;;;10.48;7.72;;;;;;;28.83;47.44;94529.06;5071762;28;20109;-73
2021/07/20 11:30:11;;;;;;;9.30;7.32;;;;;;;28.81;46.99;94528.88;5073191;28;20482;-73
2021/07/20 11:32:36;;;;;;;10.10;7.57;;;;;;;28.79;46.10;94531.47;5075181;28;20575;-73
2021/07/20 11:35:14;;;;;;;11.38;7.78;;;;;;;28.77;46.37;94534.03;5087728;28;20024;-71
2021/07/20 11:37:55;;;;;;;11.60;7.22;;;;;;;28.73;46.62;94533.69;5080210;28;20024;-72